createdAt,value
2018-04-02T00:00:18.637Z,22.87
2018-04-02T00:02:47.641Z,23.48
2018-04-02T00:05:15.607Z,23.02
2018-04-02T00:07:43.632Z,24.30
2018-04-02T00:10:11.560Z,22.48
2018-04-02T00:12:39.567Z,24.23
2018-04-02T00:15:07.571Z,20.90
2018-04-02T00:17:35.512Z,22.70
2018-04-02T00:20:03.499Z,25.12
2018-04-02T00:22:31.447Z,22.40
2018-04-02T00:24:59.432Z,24.70
2018-04-02T00:27:27.468Z,23.70
2018-04-02T00:29:55.464Z,22.42
2018-04-02T00:32:23.432Z,24.25
2018-04-02T00:34:51.424Z,22.55
2018-04-02T00:37:19.409Z,23.60
2018-04-02T00:39:47.396Z,21.58
2018-04-02T00:42:15.451Z,21.62
2018-04-02T00:44:43.449Z,24.90
2018-04-02T00:47:11.433Z,22.17
2018-04-02T00:49:39.417Z,20.42
2018-04-02T00:52:07.400Z,23.98
2018-04-02T00:54:35.368Z,26.52
2018-04-02T00:57:03.336Z,26.23
2018-04-02T00:59:31.348Z,23.33
2018-04-02T01:01:59.324Z,25.20
2018-04-02T01:04:27.308Z,24.33
2018-04-02T01:06:55.282Z,24.42
2018-04-02T01:09:23.256Z,23.25
2018-04-02T01:11:52.326Z,25.10
2018-04-02T01:14:20.331Z,26.05
2018-04-02T01:16:48.292Z,24.67
2018-04-02T01:19:16.294Z,23.10
2018-04-02T01:21:44.248Z,20.50
2018-04-02T01:24:12.204Z,22.60
2018-04-02T01:26:40.195Z,22.62
2018-04-02T01:29:08.190Z,24.75
2018-04-02T01:31:36.209Z,22.48
2018-04-02T01:34:04.206Z,22.90
2018-04-02T01:36:32.190Z,23.77
2018-04-02T01:39:00.165Z,23.20
2018-04-02T01:41:28.200Z,21.62
2018-04-02T01:43:56.211Z,22.37
2018-04-02T01:46:24.186Z,21.90
2018-04-02T01:48:52.181Z,23.50
2018-04-02T01:51:20.160Z,22.87
2018-04-02T01:53:48.142Z,21.00
2018-04-02T01:56:16.139Z,21.35
2018-04-02T01:58:44.111Z,22.27
2018-04-02T02:01:12.045Z,19.83
2018-04-02T02:03:40.060Z,21.45
2018-04-02T02:06:08.038Z,23.12
2018-04-02T02:08:35.976Z,18.95
2018-04-02T02:11:03.979Z,21.40
2018-04-02T02:13:31.960Z,22.27
2018-04-02T02:15:59.955Z,21.00
2018-04-02T02:18:27.948Z,21.02
2018-04-02T02:20:55.932Z,22.00
2018-04-02T02:23:23.958Z,22.70
2018-04-02T02:25:51.892Z,21.87
2018-04-02T02:28:19.877Z,22.52
2018-04-02T02:30:47.805Z,21.05
2018-04-02T02:33:15.805Z,22.73
2018-04-02T02:35:43.743Z,20.20
2018-04-02T02:38:11.706Z,21.08
2018-04-02T02:40:39.709Z,21.37
2018-04-02T02:43:07.640Z,19.67
2018-04-02T02:45:35.646Z,20.17
2018-04-02T02:48:03.679Z,22.00
2018-04-02T02:50:31.648Z,19.45
2018-04-02T02:52:59.583Z,20.30
2018-04-02T02:55:27.558Z,19.05
2018-04-02T02:57:55.550Z,22.50
2018-04-02T03:00:23.540Z,22.60
2018-04-02T03:02:51.877Z,21.77
2018-04-02T03:05:19.852Z,23.20
2018-04-02T03:07:47.880Z,22.40
2018-04-02T03:10:15.876Z,21.05
2018-04-02T03:12:43.829Z,20.17
2018-04-02T03:15:11.820Z,24.10
2018-04-02T03:17:39.798Z,20.70
2018-04-02T03:20:07.792Z,20.27
2018-04-02T03:22:35.782Z,24.30
2018-04-02T03:25:03.764Z,23.48
2018-04-02T03:27:31.718Z,21.98
2018-04-02T03:29:59.676Z,23.52
2018-04-02T03:32:27.685Z,21.58
2018-04-02T03:34:55.640Z,23.98
2018-04-02T03:37:23.636Z,19.02
2018-04-02T03:39:51.624Z,20.77
2018-04-02T03:42:19.588Z,21.70
2018-04-02T03:44:47.564Z,21.92
2018-04-02T03:47:15.560Z,20.37
2018-04-02T03:49:43.540Z,21.80
2018-04-02T03:52:12.548Z,21.12
2018-04-02T03:54:40.540Z,21.10
2018-04-02T03:57:09.501Z,21.40
2018-04-02T03:59:37.508Z,20.52
2018-04-02T04:02:05.520Z,20.02
2018-04-02T04:04:33.476Z,20.60
2018-04-02T04:07:01.452Z,20.10
2018-04-02T04:09:29.420Z,23.62
2018-04-02T04:11:57.404Z,20.67
2018-04-02T04:14:25.408Z,19.95
2018-04-02T04:16:53.422Z,20.50
2018-04-02T04:19:21.386Z,19.85
2018-04-02T04:21:49.361Z,22.05
2018-04-02T04:24:17.372Z,21.73
2018-04-02T04:26:46.368Z,20.80
2018-04-02T04:29:15.432Z,20.15
2018-04-02T04:31:43.426Z,21.73
2018-04-02T04:34:12.421Z,17.55
2018-04-02T04:36:40.393Z,18.25
2018-04-02T04:39:08.404Z,19.37
2018-04-02T04:41:37.395Z,20.75
2018-04-02T04:44:05.340Z,19.58
2018-04-02T04:46:33.328Z,19.23
2018-04-02T04:49:01.345Z,20.42
2018-04-02T04:51:29.350Z,20.33
2018-04-02T04:53:57.356Z,21.27
2018-04-02T04:56:25.358Z,18.83
2018-04-02T04:58:53.312Z,16.20
2018-04-02T05:01:21.275Z,20.02
2018-04-02T05:03:49.236Z,18.00
2018-04-02T05:06:17.219Z,17.45
2018-04-02T05:08:45.220Z,17.65
2018-04-02T05:11:13.222Z,16.52
2018-04-02T05:13:41.253Z,17.15
2018-04-02T05:16:09.249Z,19.08
2018-04-02T05:18:37.231Z,16.90
2018-04-02T05:21:06.200Z,16.95
2018-04-02T05:23:34.250Z,18.20
2018-04-02T05:26:02.263Z,16.92
2018-04-02T05:28:30.308Z,17.33
2018-04-02T05:30:58.283Z,19.00
2018-04-02T05:33:26.249Z,18.87
2018-04-02T05:35:54.232Z,16.55
2018-04-02T05:38:22.208Z,18.02
2018-04-02T05:40:50.143Z,17.00
2018-04-02T05:43:18.128Z,19.65
2018-04-02T05:45:46.079Z,18.95
2018-04-02T05:48:14.056Z,16.20
2018-04-02T05:50:43.104Z,17.45
2018-04-02T05:53:11.076Z,18.73
2018-04-02T05:55:39.063Z,17.62
2018-04-02T05:58:07.036Z,18.77
2018-04-02T06:00:35.019Z,16.90
2018-04-02T06:03:03.072Z,18.85
2018-04-02T06:05:31.051Z,17.90
2018-04-02T06:07:59.049Z,17.80
2018-04-02T06:10:27.045Z,18.02
2018-04-02T06:12:55.039Z,20.17
2018-04-02T06:15:23.048Z,18.10
2018-04-02T06:17:51.044Z,18.48
2018-04-02T06:20:19.028Z,18.08
2018-04-02T06:22:47.105Z,18.95
2018-04-02T06:25:15.088Z,16.52
2018-04-02T06:27:43.065Z,18.23
2018-04-02T06:30:11.041Z,18.50
2018-04-02T06:32:39.069Z,17.55
2018-04-02T06:35:07.049Z,62.15
2018-04-02T06:37:35.105Z,19.40
2018-04-02T06:40:03.065Z,17.20
2018-04-02T06:42:31.048Z,18.00
2018-04-02T06:44:59.040Z,16.83
2018-04-02T06:47:28.039Z,16.87
2018-04-02T06:49:55.983Z,16.48
2018-04-02T06:52:23.998Z,16.55
2018-04-02T06:54:51.978Z,18.10
2018-04-02T06:57:19.956Z,16.62
2018-04-02T06:59:47.993Z,16.85
2018-04-02T07:02:15.972Z,16.87
2018-04-02T07:04:43.964Z,15.50
2018-04-02T07:07:11.960Z,16.20
2018-04-02T07:09:39.948Z,16.52
2018-04-02T07:12:08.080Z,15.32
2018-04-02T07:14:36.075Z,16.90
2018-04-02T07:17:06.134Z,16.50
2018-04-02T07:19:34.131Z,14.85
2018-04-02T07:22:02.128Z,15.50
2018-04-02T07:24:30.112Z,15.52
2018-04-02T07:26:58.059Z,16.33
2018-04-02T07:29:26.085Z,15.05
2018-04-02T07:31:54.008Z,13.73
2018-04-02T07:34:22.013Z,15.13
2018-04-02T07:36:50.020Z,16.00
2018-04-02T07:39:18.005Z,16.65
2018-04-02T07:41:45.996Z,15.35
2018-04-02T07:44:14.009Z,14.68
2018-04-02T07:46:42.001Z,16.30
2018-04-02T07:49:10.015Z,15.43
2018-04-02T07:51:38.047Z,15.27
2018-04-02T07:54:06.068Z,15.30
2018-04-02T07:56:34.052Z,14.63
2018-04-02T07:59:02.051Z,15.35
2018-04-02T08:01:30.029Z,15.32
2018-04-02T08:03:58.077Z,14.68
2018-04-02T08:06:26.094Z,15.25
2018-04-02T08:08:54.111Z,14.18
2018-04-02T08:11:22.078Z,14.18
2018-04-02T08:13:51.180Z,17.27
2018-04-02T08:16:19.165Z,15.32
2018-04-02T08:18:47.146Z,14.07
2018-04-02T08:21:15.170Z,13.93
2018-04-02T08:23:43.168Z,15.13
2018-04-02T08:26:11.145Z,12.97
2018-04-02T08:28:39.153Z,13.73
2018-04-02T08:31:07.143Z,15.60
2018-04-02T08:33:35.114Z,15.30
2018-04-02T08:36:03.086Z,15.70
2018-04-02T08:38:31.044Z,13.93
2018-04-02T08:40:59.049Z,15.07
2018-04-02T08:43:28.064Z,14.83
2018-04-02T08:45:56.027Z,15.37
2018-04-02T08:48:24.059Z,15.27
2018-04-02T08:50:52.024Z,15.43
2018-04-02T08:53:19.955Z,14.10
2018-04-02T08:55:47.930Z,15.40
2018-04-02T08:58:15.928Z,13.90
2018-04-02T09:00:43.931Z,14.60
2018-04-02T09:03:11.848Z,12.97
2018-04-02T09:05:39.816Z,13.30
2018-04-02T09:08:07.757Z,13.40
2018-04-02T09:10:35.779Z,12.77
2018-04-02T09:13:03.769Z,13.70
2018-04-02T09:15:31.723Z,14.30
2018-04-02T09:17:59.968Z,13.93
2018-04-02T09:20:28.006Z,13.27
2018-04-02T09:22:56.012Z,13.07
2018-04-02T09:25:23.980Z,14.13
2018-04-02T09:27:52.001Z,12.23
2018-04-02T09:30:19.936Z,12.40
2018-04-02T09:32:47.892Z,11.17
2018-04-02T09:35:15.884Z,12.57
2018-04-02T09:37:43.880Z,11.60
2018-04-02T09:40:11.864Z,11.77
2018-04-02T09:42:39.814Z,11.20
2018-04-02T09:45:07.797Z,11.13
2018-04-02T09:47:35.743Z,12.10
2018-04-02T09:50:04.760Z,11.70
2018-04-02T09:52:32.739Z,10.90
2018-04-02T09:55:00.680Z,11.20
2018-04-02T09:57:28.679Z,9.97
2018-04-02T09:59:56.672Z,10.60
2018-04-02T10:02:24.648Z,9.47
2018-04-02T10:04:55.700Z,9.63
2018-04-02T10:07:23.552Z,9.07
2018-04-02T10:09:51.608Z,8.97
2018-04-02T10:12:19.562Z,8.90
2018-04-02T10:14:47.539Z,9.13
2018-04-02T10:17:15.537Z,8.57
2018-04-02T10:19:43.599Z,8.43
2018-04-02T10:22:11.544Z,8.60
2018-04-02T10:24:39.564Z,31.17
2018-04-02T10:27:07.546Z,8.40
2018-04-02T10:29:35.598Z,8.10
2018-04-02T10:32:03.563Z,7.80
2018-04-02T10:34:32.052Z,8.07
2018-04-02T10:37:00.040Z,9.50
2018-04-02T10:39:28.682Z,8.93
2018-04-02T10:41:56.671Z,10.47
2018-04-02T10:44:24.667Z,9.53
2018-04-02T10:46:52.640Z,8.00
2018-04-02T10:49:20.644Z,7.57
2018-04-02T10:51:48.728Z,9.13
2018-04-02T10:54:17.455Z,9.37
2018-04-02T10:56:46.595Z,7.83
2018-04-02T10:59:14.612Z,7.77
2018-04-02T11:01:42.571Z,7.33
2018-04-02T11:04:10.584Z,7.10
2018-04-02T11:06:38.549Z,8.00
2018-04-02T11:09:06.503Z,7.70
2018-04-02T11:11:34.484Z,6.57
2018-04-02T11:14:02.520Z,7.10
2018-04-02T11:16:30.523Z,7.00
2018-04-02T11:18:58.517Z,6.13
2018-04-02T11:21:26.548Z,5.77
2018-04-02T11:23:54.536Z,5.97
2018-04-02T11:26:22.557Z,5.43
2018-04-02T11:28:50.587Z,5.53
2018-04-02T11:31:18.580Z,5.70
2018-04-02T11:33:46.592Z,5.03
2018-04-02T11:36:14.581Z,5.80
2018-04-02T11:38:42.575Z,4.73
2018-04-02T11:41:10.596Z,5.20
2018-04-02T11:43:38.560Z,4.93
2018-04-02T11:46:06.533Z,5.57
2018-04-02T11:48:34.516Z,4.70
2018-04-02T11:51:02.527Z,4.97
2018-04-02T11:53:30.525Z,4.63
2018-04-02T11:55:58.509Z,4.87
2018-04-02T11:58:26.484Z,4.50
2018-04-02T12:00:54.476Z,4.60
2018-04-02T12:03:22.439Z,5.27
2018-04-02T12:05:50.379Z,4.53
2018-04-02T12:08:18.375Z,4.83
2018-04-02T12:10:46.371Z,5.20
2018-04-02T12:13:14.331Z,4.70
2018-04-02T12:15:42.314Z,4.17
2018-04-02T12:18:10.328Z,4.07
2018-04-02T12:20:39.336Z,4.90
2018-04-02T12:23:07.300Z,4.80
2018-04-02T12:25:35.248Z,5.07
2018-04-02T12:28:03.239Z,4.43
2018-04-02T12:30:31.253Z,5.33
2018-04-02T12:32:59.211Z,5.50
2018-04-02T12:35:27.207Z,5.30
2018-04-02T12:37:55.215Z,5.23
2018-04-02T12:40:23.296Z,4.23
2018-04-02T12:42:51.267Z,4.70
2018-04-02T12:45:19.256Z,5.17
2018-04-02T12:47:47.257Z,4.53
2018-04-02T12:50:15.236Z,3.73
2018-04-02T12:52:43.223Z,4.40
2018-04-02T12:55:12.269Z,3.90
2018-04-02T12:57:40.270Z,3.63
2018-04-02T13:00:09.247Z,3.60
2018-04-02T13:02:37.216Z,3.70
2018-04-02T13:05:05.223Z,3.50
2018-04-02T13:07:33.203Z,3.50
2018-04-02T13:10:01.228Z,4.00
2018-04-02T13:12:29.199Z,4.13
2018-04-02T13:14:57.143Z,3.87
2018-04-02T13:17:25.191Z,3.50
2018-04-02T13:19:53.174Z,3.30
2018-04-02T13:22:21.155Z,3.60
2018-04-02T13:24:49.180Z,4.47
2018-04-02T13:27:17.092Z,3.80
2018-04-02T13:29:45.105Z,4.50
2018-04-02T13:32:13.148Z,4.87
2018-04-02T13:34:41.136Z,4.23
2018-04-02T13:37:09.144Z,4.07
2018-04-02T13:39:37.124Z,4.40
2018-04-02T13:42:05.088Z,3.73
2018-04-02T13:44:33.080Z,4.40
2018-04-02T13:47:01.057Z,4.30
2018-04-02T13:49:29.084Z,4.00
2018-04-02T13:51:57.085Z,3.70
2018-04-02T13:54:25.073Z,3.80
2018-04-02T13:56:53.045Z,4.73
2018-04-02T13:59:21.032Z,3.30
2018-04-02T14:01:49.029Z,3.67
2018-04-02T14:04:17.020Z,3.93
2018-04-02T14:06:45.081Z,2.77
2018-04-02T14:09:13.104Z,3.10
2018-04-02T14:11:41.088Z,3.43
2018-04-02T14:14:09.064Z,2.50
2018-04-02T14:16:37.048Z,2.23
2018-04-02T14:19:05.006Z,2.40
2018-04-02T14:21:32.976Z,2.43
2018-04-02T14:24:00.964Z,2.27
2018-04-02T14:26:28.957Z,2.30
2018-04-02T14:28:57.001Z,2.87
2018-04-02T14:31:24.995Z,2.20
2018-04-02T14:33:52.960Z,3.30
2018-04-02T14:36:21.250Z,2.90
2018-04-02T14:38:49.268Z,2.70
2018-04-02T14:41:17.276Z,2.97
2018-04-02T14:43:45.252Z,3.07
2018-04-02T14:46:13.266Z,2.57
2018-04-02T14:48:41.243Z,2.97
2018-04-02T14:51:09.216Z,2.70
2018-04-02T14:53:37.192Z,2.63
2018-04-02T14:56:06.289Z,2.70
2018-04-02T14:58:34.297Z,2.90
2018-04-02T15:01:02.326Z,2.80
2018-04-02T15:03:30.320Z,3.33
2018-04-02T15:05:58.265Z,2.77
2018-04-02T15:08:26.298Z,3.20
2018-04-02T15:10:54.257Z,3.47
2018-04-02T15:13:22.243Z,4.90
2018-04-02T15:15:50.223Z,3.70
2018-04-02T15:18:18.184Z,3.10
2018-04-02T15:20:46.152Z,2.87
2018-04-02T15:23:14.166Z,2.63
2018-04-02T15:25:42.171Z,2.07
2018-04-02T15:28:10.171Z,3.13
2018-04-02T15:30:38.173Z,2.07
2018-04-02T15:33:07.241Z,2.60
2018-04-02T15:35:35.218Z,2.40
2018-04-02T15:38:03.200Z,2.37
2018-04-02T15:40:31.180Z,2.00
2018-04-02T15:42:59.115Z,1.80
2018-04-02T15:45:27.107Z,2.40
2018-04-02T15:47:56.535Z,2.10
2018-04-02T15:50:24.652Z,2.50
2018-04-02T15:52:52.624Z,2.77
2018-04-02T15:55:20.622Z,2.73
2018-04-02T15:57:48.572Z,2.50
2018-04-02T16:00:16.552Z,2.77
2018-04-02T16:02:44.542Z,2.13
2018-04-02T16:05:12.520Z,2.20
2018-04-02T16:07:40.524Z,1.97
2018-04-02T16:10:08.520Z,2.10
2018-04-02T16:12:36.508Z,1.97
2018-04-02T16:15:04.517Z,2.40
2018-04-02T16:17:32.533Z,3.03
2018-04-02T16:20:00.511Z,2.10
2018-04-02T16:22:28.521Z,2.30
2018-04-02T16:24:56.475Z,2.57
2018-04-02T16:27:24.449Z,2.20
2018-04-02T16:29:52.458Z,1.47
2018-04-02T16:32:20.403Z,1.90
2018-04-02T16:34:48.453Z,2.10
2018-04-02T16:37:16.477Z,2.13
2018-04-02T16:39:44.448Z,2.17
2018-04-02T16:42:12.415Z,1.80
2018-04-02T16:44:40.590Z,2.20
2018-04-02T16:47:09.613Z,2.00
2018-04-02T16:49:37.581Z,1.70
2018-04-02T16:52:05.584Z,2.13
2018-04-02T16:54:33.580Z,1.67
2018-04-02T16:57:01.555Z,1.63
2018-04-02T16:59:29.564Z,1.73
2018-04-02T17:01:57.609Z,2.30
2018-04-02T17:04:25.544Z,2.20
2018-04-02T17:06:53.540Z,2.23
2018-04-02T17:09:21.563Z,2.30
2018-04-02T17:11:49.570Z,1.67
2018-04-02T17:14:17.616Z,1.90
2018-04-02T17:16:45.600Z,1.67
2018-04-02T17:19:13.584Z,2.23
2018-04-02T17:21:41.601Z,1.70
2018-04-02T17:24:09.597Z,1.93
2018-04-02T17:26:37.593Z,1.70
2018-04-02T17:29:05.592Z,1.90
2018-04-02T17:31:33.582Z,1.50
2018-04-02T17:34:02.468Z,2.80
2018-04-02T17:36:30.480Z,2.00
2018-04-02T17:38:58.472Z,2.80
2018-04-02T17:41:26.485Z,2.30
2018-04-02T17:43:55.552Z,2.53
2018-04-02T17:46:23.560Z,2.67
2018-04-02T17:48:52.542Z,2.47
2018-04-02T17:51:20.868Z,2.80
2018-04-02T17:53:49.200Z,2.10
2018-04-02T17:56:17.609Z,1.93
2018-04-02T17:58:47.950Z,2.17
2018-04-02T18:01:16.018Z,1.70
2018-04-02T18:03:44.008Z,1.90
2018-04-02T18:06:13.683Z,2.03
2018-04-02T18:08:42.255Z,2.97
2018-04-02T18:11:10.415Z,1.97
2018-04-02T18:13:39.489Z,2.57
2018-04-02T18:16:07.520Z,2.10
2018-04-02T18:18:35.868Z,2.30
2018-04-02T18:21:03.931Z,2.10
2018-04-02T18:23:32.944Z,1.83
2018-04-02T18:26:00.980Z,2.47
2018-04-02T18:28:29.039Z,2.23
2018-04-02T18:30:57.044Z,2.03
2018-04-02T18:33:25.023Z,1.87
2018-04-02T18:35:53.134Z,2.30
2018-04-02T18:38:21.114Z,1.37
2018-04-02T18:40:49.064Z,1.87
2018-04-02T18:43:17.094Z,1.73
2018-04-02T18:45:45.073Z,1.50
2018-04-02T18:48:13.052Z,2.00
2018-04-02T18:50:41.034Z,1.70
2018-04-02T18:53:09.055Z,1.97
2018-04-02T18:55:37.043Z,2.23
2018-04-02T18:58:05.022Z,2.23
2018-04-02T19:00:33.000Z,2.63
2018-04-02T19:03:00.988Z,2.10
2018-04-02T19:05:29.009Z,2.03
2018-04-02T19:07:56.989Z,2.50
2018-04-02T19:10:25.029Z,2.83
2018-04-02T19:12:53.008Z,2.40
2018-04-02T19:15:21.013Z,1.70
2018-04-02T19:17:48.952Z,2.00
2018-04-02T19:20:17.000Z,2.40
2018-04-02T19:22:44.972Z,2.50
2018-04-02T19:25:12.965Z,2.30
2018-04-02T19:27:41.000Z,2.23
2018-04-02T19:30:08.966Z,2.57
2018-04-02T19:32:36.961Z,2.73
2018-04-02T19:35:04.961Z,2.63
2018-04-02T19:37:33.014Z,2.47
2018-04-02T19:40:01.003Z,2.90
2018-04-02T19:42:28.994Z,2.77
2018-04-02T19:44:57.019Z,3.20
2018-04-02T19:47:24.999Z,2.90
2018-04-02T19:49:53.005Z,2.97
2018-04-02T19:52:21.009Z,2.93
2018-04-02T19:54:48.968Z,3.60
2018-04-02T19:57:16.977Z,3.80
2018-04-02T19:59:45.111Z,3.10
2018-04-02T20:02:13.069Z,2.90
2018-04-02T20:04:41.129Z,3.23
2018-04-02T20:07:09.170Z,3.40
2018-04-02T20:09:37.173Z,3.57
2018-04-02T20:12:05.189Z,2.90
2018-04-02T20:14:33.156Z,3.60
2018-04-02T20:17:01.128Z,3.00
2018-04-02T20:19:29.132Z,3.30
2018-04-02T20:21:57.198Z,3.30
2018-04-02T20:24:25.228Z,3.60
2018-04-02T20:26:53.288Z,2.90
2018-04-02T20:29:21.622Z,3.23
2018-04-02T20:31:49.626Z,3.00
2018-04-02T20:34:17.615Z,2.73
2018-04-02T20:36:45.613Z,2.80
2018-04-02T20:39:13.799Z,3.30
2018-04-02T20:41:41.837Z,4.03
2018-04-02T20:44:09.861Z,3.60
2018-04-02T20:46:37.848Z,3.57
2018-04-02T20:49:05.852Z,3.03
2018-04-02T20:51:33.826Z,3.43
2018-04-02T20:54:01.913Z,3.20
2018-04-02T20:56:30.024Z,3.40
2018-04-02T20:58:58.020Z,3.93
2018-04-02T21:01:25.948Z,3.87
2018-04-02T21:03:53.956Z,3.43
2018-04-02T21:06:21.948Z,4.40
2018-04-02T21:08:49.951Z,3.80
2018-04-02T21:11:17.967Z,3.50
2018-04-02T21:13:45.949Z,4.30
2018-04-02T21:16:13.936Z,3.03
2018-04-02T21:18:41.920Z,3.20
2018-04-02T21:21:09.887Z,4.57
2018-04-02T21:23:37.920Z,4.05
2018-04-02T21:26:05.904Z,4.53
2018-04-02T21:28:33.907Z,4.33
2018-04-02T21:31:01.900Z,4.30
2018-04-02T21:33:31.036Z,4.47
2018-04-02T21:36:00.587Z,3.60
2018-04-02T21:38:28.616Z,4.60
2018-04-02T21:40:56.602Z,4.70
2018-04-02T21:43:24.590Z,3.90
2018-04-02T21:45:52.593Z,4.40
2018-04-02T21:48:21.808Z,3.87
2018-04-02T21:50:49.829Z,4.43
2018-04-02T21:53:17.849Z,4.00
2018-04-02T21:55:45.856Z,4.65
2018-04-02T21:58:13.840Z,3.73
2018-04-02T22:00:41.856Z,4.70
2018-04-02T22:03:09.899Z,4.33
2018-04-02T22:05:37.885Z,3.70
2018-04-02T22:08:08.904Z,4.50
2018-04-02T22:10:36.890Z,3.40
2018-04-02T22:13:04.877Z,3.90
2018-04-02T22:15:32.855Z,4.90
2018-04-02T22:18:00.900Z,4.10
2018-04-02T22:20:28.920Z,3.97
2018-04-02T22:22:56.896Z,3.23
2018-04-02T22:25:24.879Z,3.97
2018-04-02T22:27:52.906Z,4.00
2018-04-02T22:30:20.925Z,3.70
2018-04-02T22:32:49.628Z,3.93
2018-04-02T22:35:17.612Z,4.13
2018-04-02T22:37:45.586Z,4.10
2018-04-02T22:40:13.588Z,3.60
2018-04-02T22:42:42.102Z,3.73
2018-04-02T22:45:10.104Z,4.33
2018-04-02T22:47:38.153Z,4.30
2018-04-02T22:50:06.160Z,4.60
2018-04-02T22:52:34.144Z,5.07
2018-04-02T22:55:02.188Z,5.13
2018-04-02T22:57:30.155Z,5.17
2018-04-02T22:59:59.144Z,6.10
2018-04-02T23:02:27.241Z,4.30
2018-04-02T23:04:55.261Z,5.90
2018-04-02T23:07:23.216Z,5.43
2018-04-02T23:09:51.285Z,6.00
2018-04-02T23:12:19.292Z,5.10
2018-04-02T23:14:48.374Z,5.23
2018-04-02T23:17:16.376Z,5.77
2018-04-02T23:19:46.392Z,5.72
2018-04-02T23:22:20.645Z,5.05
2018-04-02T23:24:49.725Z,6.33
2018-04-02T23:27:17.708Z,6.43
2018-04-02T23:29:45.684Z,5.93
2018-04-02T23:32:13.688Z,5.77
2018-04-02T23:34:41.649Z,6.57
2018-04-02T23:37:09.628Z,5.67
2018-04-02T23:39:37.627Z,5.47
2018-04-02T23:42:05.590Z,5.90
2018-04-02T23:44:33.551Z,6.30
2018-04-02T23:47:01.528Z,5.93
2018-04-02T23:49:29.512Z,6.33
2018-04-02T23:51:57.519Z,5.70
2018-04-02T23:54:25.540Z,5.33
2018-04-02T23:56:53.553Z,5.63
2018-04-02T23:59:21.543Z,6.17
